createdAt,value
2022-12-13T00:02:25.982Z,75.15
2022-12-13T00:04:55.495Z,75.03
2022-12-13T00:07:24.971Z,69.32
2022-12-13T00:09:54.478Z,73.20
2022-12-13T00:12:24.017Z,64.47
2022-12-13T00:14:56.538Z,69.82
2022-12-13T00:17:26.006Z,75.70
2022-12-13T00:19:55.833Z,79.10
2022-12-13T00:22:25.292Z,85.57
2022-12-13T00:24:56.797Z,80.03
2022-12-13T00:27:26.724Z,95.90
2022-12-13T00:29:58.755Z,85.20
2022-12-13T00:32:28.278Z,79.25
2022-12-13T00:34:57.703Z,85.70
2022-12-13T00:37:27.116Z,93.55
2022-12-13T00:39:56.507Z,76.63
2022-12-13T00:42:25.955Z,75.85
2022-12-13T00:44:58.044Z,76.13
2022-12-13T00:47:29.043Z,81.60
2022-12-13T00:49:58.437Z,81.57
2022-12-13T00:52:27.929Z,79.85
2022-12-13T00:54:57.395Z,71.07
2022-12-13T00:57:26.846Z,75.75
2022-12-13T00:59:59.665Z,75.05
2022-12-13T01:02:29.545Z,75.97
2022-12-13T01:04:59.255Z,75.43
2022-12-13T01:07:28.700Z,83.70
2022-12-13T01:10:00.403Z,105.10
2022-12-13T01:12:29.978Z,94.97
2022-12-13T01:15:02.045Z,100.82
2022-12-13T01:17:31.597Z,104.05
2022-12-13T01:20:01.051Z,87.63
2022-12-13T01:22:30.568Z,102.55
2022-12-13T01:24:59.959Z,89.78
2022-12-13T01:27:29.351Z,92.53
2022-12-13T01:29:58.763Z,94.65
2022-12-13T01:32:30.823Z,83.95
2022-12-13T01:35:00.187Z,93.57
2022-12-13T01:37:29.679Z,93.75
2022-12-13T01:39:59.032Z,103.70
2022-12-13T01:42:28.528Z,87.35
2022-12-13T01:45:07.311Z,81.35
2022-12-13T01:47:42.348Z,72.20
2022-12-13T01:50:15.542Z,78.43
2022-12-13T01:52:45.844Z,89.50
2022-12-13T01:55:15.801Z,79.03
2022-12-13T01:57:47.381Z,68.57
2022-12-13T02:00:18.236Z,69.55
2022-12-13T02:02:51.739Z,82.82
2022-12-13T02:05:25.859Z,78.60
2022-12-13T02:07:55.975Z,63.80
2022-12-13T02:10:25.619Z,77.28
2022-12-13T02:12:55.245Z,82.90
2022-12-13T02:15:25.340Z,67.97
2022-12-13T02:18:07.772Z,70.93
2022-12-13T02:20:59.015Z,72.53
2022-12-13T02:23:58.377Z,77.50
2022-12-13T02:26:39.927Z,74.22
2022-12-13T02:29:34.740Z,72.90
2022-12-13T02:32:11.068Z,81.55
2022-12-13T02:34:42.749Z,79.90
2022-12-13T02:37:19.690Z,67.07
2022-12-13T02:39:52.797Z,84.53
2022-12-13T02:42:27.206Z,84.85
2022-12-13T02:44:59.358Z,86.70
2022-12-13T02:47:32.433Z,84.65
2022-12-13T02:50:03.657Z,74.35
2022-12-13T02:52:34.793Z,97.40
2022-12-13T02:55:09.857Z,88.25
2022-12-13T02:57:40.948Z,83.60
2022-12-13T03:00:13.215Z,89.13
2022-12-13T03:02:57.293Z,79.32
2022-12-13T03:05:43.385Z,81.63
2022-12-13T03:08:21.498Z,86.18
2022-12-13T03:10:57.102Z,80.60
2022-12-13T03:13:38.198Z,77.80
2022-12-13T03:16:12.417Z,80.80
2022-12-13T03:18:44.781Z,82.72
2022-12-13T03:21:14.668Z,84.65
2022-12-13T03:23:44.146Z,89.18
2022-12-13T03:26:16.659Z,94.90
2022-12-13T03:28:46.106Z,76.55
2022-12-13T03:31:15.694Z,86.10
2022-12-13T03:33:47.915Z,236.35
2022-12-13T03:36:18.930Z,105.93
2022-12-13T03:38:48.486Z,134.18
2022-12-13T03:41:20.340Z,135.80
2022-12-13T03:43:49.901Z,97.43
2022-12-13T03:46:19.327Z,82.35
2022-12-13T03:48:51.402Z,82.82
2022-12-13T03:51:20.822Z,69.90
2022-12-13T03:53:50.375Z,74.30
2022-12-13T03:56:19.871Z,74.93
2022-12-13T03:58:49.238Z,74.47
2022-12-13T04:01:19.413Z,81.18
2022-12-13T04:03:51.444Z,73.95
2022-12-13T04:06:22.725Z,79.53
2022-12-13T04:08:53.343Z,68.95
2022-12-13T04:11:35.502Z,67.28
2022-12-13T04:14:11.945Z,75.13
2022-12-13T04:16:41.432Z,64.10
2022-12-13T04:19:13.503Z,76.43
2022-12-13T04:21:42.968Z,75.40
2022-12-13T04:24:12.531Z,72.65
2022-12-13T04:26:41.984Z,61.67
2022-12-13T04:29:11.464Z,63.72
2022-12-13T04:31:40.971Z,69.57
2022-12-13T04:34:13.167Z,69.68
2022-12-13T04:36:42.700Z,70.75
2022-12-13T04:39:21.624Z,79.30
2022-12-13T04:41:52.288Z,67.65
2022-12-13T04:44:29.019Z,69.60
2022-12-13T04:47:01.143Z,70.88
2022-12-13T04:49:33.624Z,83.35
2022-12-13T04:52:03.824Z,64.43
2022-12-13T04:54:35.567Z,65.63
2022-12-13T04:57:07.712Z,77.07
2022-12-13T04:59:37.388Z,67.47
2022-12-13T05:02:08.027Z,75.78
2022-12-13T05:04:40.287Z,77.72
2022-12-13T05:07:09.800Z,68.97
2022-12-13T05:09:39.301Z,67.20
2022-12-13T05:12:22.718Z,79.30
2022-12-13T05:14:53.055Z,61.72
2022-12-13T05:17:22.574Z,76.80
2022-12-13T05:19:54.653Z,80.53
2022-12-13T05:22:24.213Z,70.03
2022-12-13T05:24:53.688Z,63.47
2022-12-13T05:27:25.780Z,72.28
2022-12-13T05:30:03.067Z,71.38
2022-12-13T05:32:43.306Z,65.88
2022-12-13T05:35:21.866Z,67.93
2022-12-13T05:37:53.461Z,71.10
2022-12-13T05:40:23.918Z,66.43
2022-12-13T05:43:01.539Z,69.55
2022-12-13T05:45:32.008Z,70.35
2022-12-13T05:48:02.248Z,127.28
2022-12-13T05:50:34.357Z,110.57
2022-12-13T05:53:03.763Z,80.20
2022-12-13T05:55:33.208Z,91.65
2022-12-13T05:58:02.867Z,74.47
2022-12-13T06:00:32.469Z,73.60
2022-12-13T06:03:02.844Z,70.97
2022-12-13T06:05:34.978Z,90.78
2022-12-13T06:08:04.655Z,59.03
2022-12-13T06:11:10.634Z,58.88
2022-12-13T06:13:42.490Z,60.05
2022-12-13T06:16:23.078Z,63.75
2022-12-13T06:19:01.217Z,60.05
2022-12-13T06:21:41.200Z,55.47
2022-12-13T06:24:16.751Z,65.95
2022-12-13T06:26:46.457Z,58.80
2022-12-13T06:29:24.567Z,60.35
2022-12-13T06:32:01.672Z,63.03
2022-12-13T06:34:33.514Z,64.82
2022-12-13T06:37:06.965Z,63.22
2022-12-13T06:39:36.773Z,70.55
2022-12-13T06:42:08.026Z,70.30
2022-12-13T06:44:38.096Z,63.42
2022-12-13T06:47:11.588Z,58.28
2022-12-13T06:49:43.995Z,67.15
2022-12-13T06:52:16.973Z,61.05
2022-12-13T06:54:46.900Z,66.43
2022-12-13T06:57:16.480Z,56.47
2022-12-13T06:59:45.993Z,63.58
2022-12-13T07:02:25.816Z,58.83
2022-12-13T07:04:56.875Z,57.47
2022-12-13T07:07:29.748Z,67.75
2022-12-13T07:10:00.032Z,63.17
2022-12-13T07:12:29.562Z,55.97
2022-12-13T07:14:59.110Z,58.47
2022-12-13T07:17:32.367Z,56.55
2022-12-13T07:20:04.819Z,67.03
2022-12-13T07:22:40.096Z,55.20
2022-12-13T07:25:28.418Z,63.25
2022-12-13T07:28:03.211Z,60.40
2022-12-13T07:30:34.067Z,67.18
2022-12-13T07:33:10.273Z,60.00
2022-12-13T07:35:39.718Z,61.38
2022-12-13T07:38:12.760Z,62.70
2022-12-13T07:40:44.366Z,60.72
2022-12-13T07:43:16.140Z,64.15
2022-12-13T07:45:46.420Z,58.08
2022-12-13T07:48:15.890Z,55.13
2022-12-13T07:50:45.776Z,66.18
2022-12-13T07:53:26.902Z,64.18
2022-12-13T07:55:56.377Z,56.03
2022-12-13T07:58:25.943Z,53.97
2022-12-13T08:00:55.363Z,56.42
2022-12-13T08:03:26.456Z,51.58
2022-12-13T08:06:02.283Z,67.03
2022-12-13T08:08:35.148Z,79.53
2022-12-13T08:11:04.992Z,58.03
2022-12-13T08:13:34.603Z,60.40
2022-12-13T08:16:27.290Z,65.47
2022-12-13T08:19:01.782Z,55.80
2022-12-13T08:21:58.423Z,57.35
2022-12-13T08:24:30.944Z,50.85
2022-12-13T08:27:03.366Z,58.38
2022-12-13T08:29:35.795Z,59.65
2022-12-13T08:32:06.506Z,55.58
2022-12-13T08:34:36.023Z,58.67
2022-12-13T08:37:05.510Z,63.78
2022-12-13T08:39:39.121Z,56.25
2022-12-13T08:42:15.989Z,59.63
2022-12-13T08:44:48.540Z,61.95
2022-12-13T08:47:22.531Z,58.63
2022-12-13T08:50:02.217Z,56.45
2022-12-13T08:52:39.354Z,54.63
2022-12-13T08:55:13.533Z,58.20
2022-12-13T08:57:44.221Z,77.30
2022-12-13T09:00:15.451Z,80.18
2022-12-13T09:02:45.285Z,83.65
2022-12-13T09:05:33.950Z,55.85
2022-12-13T09:08:23.476Z,60.53
2022-12-13T09:11:11.388Z,53.88
2022-12-13T09:13:54.076Z,60.85
2022-12-13T09:16:36.187Z,121.68
2022-12-13T09:19:25.950Z,62.72
2022-12-13T09:22:02.605Z,69.15
2022-12-13T09:24:36.189Z,57.17
2022-12-13T09:27:10.432Z,87.00
2022-12-13T09:29:57.005Z,63.90
2022-12-13T09:32:27.620Z,65.97
2022-12-13T09:34:57.089Z,67.90
2022-12-13T09:37:27.604Z,64.03
2022-12-13T09:39:57.155Z,68.68
2022-12-13T09:42:33.442Z,114.43
2022-12-13T09:45:04.736Z,83.60
2022-12-13T09:47:37.140Z,67.95
2022-12-13T09:50:14.816Z,78.20
2022-12-13T09:52:46.456Z,56.58
2022-12-13T09:55:24.220Z,49.95
2022-12-13T09:57:56.310Z,53.20
2022-12-13T10:00:28.867Z,64.03
2022-12-13T10:03:00.204Z,73.90
2022-12-13T10:05:34.482Z,69.20
2022-12-13T10:08:09.677Z,54.65
2022-12-13T10:10:39.401Z,52.55
2022-12-13T10:13:19.726Z,54.03
2022-12-13T10:15:53.104Z,55.78
2022-12-13T10:18:29.657Z,50.78
2022-12-13T10:20:59.296Z,54.10
2022-12-13T10:23:42.644Z,55.70
2022-12-13T10:26:24.216Z,46.40
2022-12-13T10:29:04.401Z,47.90
2022-12-13T10:31:42.346Z,49.08
2022-12-13T10:34:23.335Z,50.08
2022-12-13T10:36:53.642Z,57.65
2022-12-13T10:39:40.166Z,57.28
2022-12-13T10:42:23.432Z,68.45
2022-12-13T10:45:13.009Z,48.60
2022-12-13T10:47:45.204Z,61.42
2022-12-13T10:50:27.218Z,49.20
2022-12-13T10:52:57.507Z,52.03
2022-12-13T10:55:30.076Z,60.95
2022-12-13T10:58:01.116Z,60.72
2022-12-13T11:00:40.429Z,53.80
2022-12-13T11:03:10.988Z,56.50
2022-12-13T11:05:40.914Z,50.90
2022-12-13T11:08:26.690Z,64.82
2022-12-13T11:11:01.466Z,48.35
2022-12-13T11:13:36.954Z,46.65
2022-12-13T11:16:21.325Z,42.75
2022-12-13T11:18:53.878Z,33.55
2022-12-13T11:21:27.566Z,40.55
2022-12-13T11:24:01.986Z,44.60
2022-12-13T11:26:32.433Z,47.40
2022-12-13T11:29:20.062Z,45.63
2022-12-13T11:31:58.197Z,40.58
2022-12-13T11:34:35.243Z,41.63
2022-12-13T11:37:10.165Z,36.70
2022-12-13T11:39:40.967Z,36.88
2022-12-13T11:42:24.139Z,48.65
2022-12-13T11:45:00.717Z,33.35
2022-12-13T11:47:46.565Z,44.35
2022-12-13T11:50:33.545Z,42.83
2022-12-13T11:53:20.551Z,42.55
2022-12-13T11:55:53.659Z,39.90
2022-12-13T12:01:20.847Z,44.38
2022-12-13T12:03:55.364Z,44.60
2022-12-13T12:06:26.370Z,38.28
2022-12-13T12:08:59.492Z,44.90
2022-12-13T12:11:32.835Z,36.08
2022-12-13T12:14:06.152Z,39.65
2022-12-13T12:16:40.427Z,40.92
2022-12-13T12:19:15.527Z,36.00
2022-12-13T12:22:13.839Z,40.45
2022-12-13T12:24:53.288Z,29.35
2022-12-13T12:27:29.768Z,30.25
2022-12-13T12:30:07.412Z,48.53
2022-12-13T12:32:41.902Z,36.17
2022-12-13T12:35:25.116Z,35.15
2022-12-13T12:37:56.598Z,29.83
2022-12-13T12:41:14.168Z,34.72
2022-12-13T12:43:34.730Z,34.40
2022-12-13T12:46:17.301Z,35.30
2022-12-13T12:49:21.009Z,28.67
2022-12-13T12:51:57.670Z,35.45
2022-12-13T12:54:40.391Z,31.60
2022-12-13T12:57:17.187Z,36.38
2022-12-13T12:59:58.219Z,35.95
2022-12-13T13:02:35.807Z,29.98
2022-12-13T13:05:14.197Z,33.78
2022-12-13T13:07:51.243Z,34.97
2022-12-13T13:10:26.964Z,34.38
2022-12-13T13:13:12.913Z,35.13
2022-12-13T13:15:58.597Z,46.85
2022-12-13T13:18:52.245Z,30.98
2022-12-13T13:21:47.984Z,37.60
2022-12-13T13:24:22.360Z,38.95
2022-12-13T13:26:53.746Z,34.80
2022-12-13T13:29:35.498Z,31.50
2022-12-13T13:32:07.924Z,35.30
2022-12-13T13:34:39.492Z,40.88
2022-12-13T13:37:29.972Z,35.95
2022-12-13T13:40:03.542Z,36.75
2022-12-13T13:42:33.821Z,36.92
2022-12-13T13:45:25.216Z,42.33
2022-12-13T13:48:21.828Z,36.30
2022-12-13T13:51:17.146Z,40.13
2022-12-13T13:54:11.207Z,45.85
2022-12-13T13:57:10.796Z,55.92
2022-12-13T14:00:10.367Z,40.05
2022-12-13T14:03:32.382Z,38.97
2022-12-13T14:06:34.471Z,44.95
2022-12-13T14:09:16.839Z,45.70
2022-12-13T14:12:28.483Z,35.80
2022-12-13T14:15:21.753Z,52.13
2022-12-13T14:18:24.195Z,35.38
2022-12-13T14:21:03.260Z,39.13
2022-12-13T14:23:42.140Z,42.30
2022-12-13T14:26:24.722Z,62.10
2022-12-13T14:28:56.439Z,44.00
2022-12-13T14:31:27.943Z,42.10
2022-12-13T14:33:59.091Z,45.70
2022-12-13T14:36:32.374Z,42.45
2022-12-13T14:39:03.109Z,50.97
2022-12-13T14:41:35.467Z,41.20
2022-12-13T14:44:17.342Z,40.58
2022-12-13T14:46:58.053Z,40.63
2022-12-13T14:49:30.133Z,38.00
2022-12-13T14:52:03.711Z,60.75
2022-12-13T14:54:40.867Z,42.58
2022-12-13T14:57:20.611Z,40.30
2022-12-13T14:59:51.017Z,43.95
2022-12-13T15:02:31.312Z,54.90
2022-12-13T15:05:02.334Z,52.33
2022-12-13T15:07:35.757Z,41.13
2022-12-13T15:10:08.404Z,45.72
2022-12-13T15:12:44.375Z,42.28
2022-12-13T15:15:24.635Z,47.22
2022-12-13T15:18:07.679Z,45.67
2022-12-13T15:20:41.921Z,44.67
2022-12-13T15:23:15.736Z,49.38
2022-12-13T15:25:45.812Z,49.15
2022-12-13T15:28:21.895Z,45.45
2022-12-13T15:30:52.093Z,47.67
2022-12-13T15:33:30.691Z,49.22
2022-12-13T15:36:09.284Z,51.95
2022-12-13T15:38:40.200Z,52.17
2022-12-13T15:41:09.784Z,52.88
2022-12-13T15:43:48.992Z,51.58
2022-12-13T15:46:26.932Z,45.90
2022-12-13T15:48:57.898Z,57.88
2022-12-13T15:51:28.866Z,52.50
2022-12-13T15:54:06.044Z,45.53
2022-12-13T15:56:37.188Z,55.83
2022-12-13T15:59:26.469Z,56.50
2022-12-13T16:01:58.478Z,56.92
2022-12-13T16:04:31.155Z,65.70
2022-12-13T16:07:00.635Z,63.15
2022-12-13T16:09:32.164Z,59.58
2022-12-13T16:12:03.644Z,72.47
2022-12-13T16:14:49.734Z,66.10
2022-12-13T16:17:24.985Z,51.70
2022-12-13T16:19:55.187Z,62.42
2022-12-13T16:22:24.905Z,50.72
2022-12-13T16:24:56.498Z,48.95
2022-12-13T16:27:25.961Z,65.75
2022-12-13T16:29:57.998Z,77.57
2022-12-13T16:32:27.550Z,62.53
2022-12-13T16:34:56.936Z,61.03
2022-12-13T16:37:27.601Z,58.65
2022-12-13T16:39:57.318Z,64.28
2022-12-13T16:42:27.414Z,77.32
2022-12-13T16:45:18.117Z,71.38
2022-12-13T16:47:49.967Z,42.90
2022-12-13T16:50:21.651Z,67.15
2022-12-13T16:52:51.529Z,67.13
2022-12-13T16:55:21.202Z,74.65
2022-12-13T16:58:01.378Z,75.55
2022-12-13T17:00:33.751Z,70.13
2022-12-13T17:03:03.562Z,65.88
2022-12-13T17:05:34.319Z,72.45
2022-12-13T17:08:03.823Z,53.28
2022-12-13T17:10:33.614Z,73.20
2022-12-13T17:13:03.079Z,86.80
2022-12-13T17:15:35.071Z,40.05
2022-12-13T17:18:05.067Z,55.08
2022-12-13T17:20:34.598Z,79.28
2022-12-13T17:23:05.212Z,55.47
2022-12-13T17:25:35.149Z,50.03
2022-12-13T17:28:04.656Z,43.72
2022-12-13T17:30:37.179Z,79.03
2022-12-13T17:33:08.664Z,77.90
2022-12-13T17:35:38.136Z,56.03
2022-12-13T17:38:07.947Z,68.18
2022-12-13T17:40:38.356Z,75.72
2022-12-13T17:43:08.324Z,80.93
2022-12-13T17:45:43.868Z,70.90
2022-12-13T17:48:13.678Z,70.88
2022-12-13T17:50:43.207Z,82.55
2022-12-13T17:53:12.688Z,73.75
2022-12-13T17:55:42.343Z,86.70
2022-12-13T17:58:11.747Z,81.50
2022-12-13T18:00:43.817Z,71.55
2022-12-13T18:03:13.345Z,85.70
2022-12-13T18:05:42.808Z,75.55
2022-12-13T18:08:12.330Z,100.18
2022-12-13T18:10:41.790Z,86.63
2022-12-13T18:13:11.243Z,71.93
2022-12-13T18:15:43.244Z,80.97
2022-12-13T18:18:12.864Z,59.50
2022-12-13T18:20:42.561Z,74.32
2022-12-13T18:23:12.106Z,67.88
2022-12-13T18:25:42.033Z,86.57
2022-12-13T18:28:12.652Z,61.75
2022-12-13T18:30:44.724Z,93.45
2022-12-13T18:33:15.171Z,78.03
2022-12-13T18:35:44.709Z,97.60
2022-12-13T18:38:14.176Z,95.57
2022-12-13T18:40:46.321Z,90.60
2022-12-13T18:43:15.910Z,88.05
2022-12-13T18:45:49.005Z,100.72
2022-12-13T18:48:18.744Z,86.20
2022-12-13T18:50:48.957Z,78.13
2022-12-13T18:53:18.586Z,93.75
2022-12-13T18:55:48.037Z,95.10
2022-12-13T18:58:17.492Z,91.30
2022-12-13T19:00:50.550Z,90.25
2022-12-13T19:03:20.083Z,82.30
2022-12-13T19:05:49.666Z,96.07
2022-12-13T19:08:19.202Z,103.07
2022-12-13T19:10:48.897Z,105.18
2022-12-13T19:13:18.414Z,89.45
2022-12-13T19:15:50.542Z,74.53
2022-12-13T19:18:20.071Z,102.68
2022-12-13T19:20:49.968Z,78.88
2022-12-13T19:23:19.714Z,88.18
2022-12-13T19:25:49.752Z,85.03
2022-12-13T19:28:19.946Z,81.47
2022-12-13T19:30:52.130Z,89.10
2022-12-13T19:33:21.609Z,91.93
2022-12-13T19:35:51.395Z,99.35
2022-12-13T19:38:20.948Z,86.78
2022-12-13T19:40:50.409Z,95.90
2022-12-13T19:43:21.027Z,123.22
2022-12-13T19:45:53.048Z,91.25
2022-12-13T19:48:22.628Z,96.72
2022-12-13T19:50:52.194Z,109.15
2022-12-13T19:53:21.638Z,87.82
2022-12-13T19:55:51.068Z,101.82
2022-12-13T19:58:20.599Z,98.40
2022-12-13T20:00:50.116Z,101.80
2022-12-13T20:03:23.437Z,99.85
2022-12-13T20:05:59.927Z,80.15
2022-12-13T20:08:29.864Z,100.80
2022-12-13T20:11:00.877Z,97.10
2022-12-13T20:13:30.754Z,131.65
2022-12-13T20:16:00.589Z,138.35
2022-12-13T20:18:32.685Z,98.95
2022-12-13T20:21:13.701Z,93.80
2022-12-13T20:23:49.751Z,87.03
2022-12-13T20:26:22.259Z,84.50
2022-12-13T20:28:52.345Z,77.93
2022-12-13T20:31:23.635Z,88.80
2022-12-13T20:33:59.908Z,84.95
2022-12-13T20:36:30.654Z,83.00
2022-12-13T20:39:01.946Z,79.53
2022-12-13T20:41:33.284Z,85.78
2022-12-13T20:44:04.091Z,80.80
2022-12-13T20:46:34.484Z,85.05
2022-12-13T20:49:08.701Z,82.20
2022-12-13T20:51:39.463Z,77.28
2022-12-13T20:54:09.257Z,73.45
2022-12-13T20:56:40.190Z,74.15
2022-12-13T20:59:12.682Z,76.45
2022-12-13T21:01:43.341Z,80.57
2022-12-13T21:04:15.453Z,68.47
2022-12-13T21:06:45.179Z,77.13
2022-12-13T21:09:14.732Z,84.40
2022-12-13T21:11:45.564Z,74.30
2022-12-13T21:14:21.362Z,79.93
2022-12-13T21:16:53.764Z,81.50
2022-12-13T21:19:27.469Z,75.93
2022-12-13T21:21:58.190Z,70.40
2022-12-13T21:24:29.394Z,71.22
2022-12-13T21:26:59.933Z,73.18
2022-12-13T21:29:29.431Z,79.53
2022-12-13T21:31:58.912Z,84.10
2022-12-13T21:34:31.223Z,68.68
2022-12-13T21:37:00.648Z,66.88
2022-12-13T21:39:30.986Z,63.58
2022-12-13T21:42:00.777Z,71.47
2022-12-13T21:44:30.184Z,77.75
2022-12-13T21:47:15.092Z,73.95
2022-12-13T21:49:48.432Z,70.60
2022-12-13T21:52:18.511Z,76.20
2022-12-13T21:54:47.986Z,64.43
2022-12-13T21:57:29.918Z,67.65
2022-12-13T21:59:59.405Z,66.90
2022-12-13T22:02:29.017Z,71.60
2022-12-13T22:05:01.824Z,68.65
2022-12-13T22:07:32.722Z,65.68
2022-12-13T22:10:03.940Z,68.15
2022-12-13T22:12:36.168Z,61.03
2022-12-13T22:15:07.337Z,62.78
2022-12-13T22:17:36.826Z,73.78
2022-12-13T22:20:11.535Z,68.85
2022-12-13T22:22:41.570Z,71.10
2022-12-13T22:25:11.902Z,73.20
2022-12-13T22:27:41.347Z,59.25
2022-12-13T22:30:12.161Z,64.97
2022-12-13T22:32:42.355Z,69.03
2022-12-13T22:35:14.653Z,68.47
2022-12-13T22:37:44.079Z,67.90
2022-12-13T22:40:18.328Z,68.72
2022-12-13T22:42:48.373Z,64.72
2022-12-13T22:45:18.182Z,65.03
2022-12-13T22:47:47.655Z,66.72
2022-12-13T22:50:20.832Z,61.15
2022-12-13T22:52:50.296Z,66.00
2022-12-13T22:55:19.852Z,65.50
2022-12-13T22:57:49.295Z,55.97
2022-12-13T23:00:19.193Z,66.55
2022-12-13T23:02:48.787Z,63.13
2022-12-13T23:05:20.885Z,64.40
2022-12-13T23:07:50.399Z,73.25
2022-12-13T23:10:32.441Z,66.22
2022-12-13T23:13:04.568Z,56.60
2022-12-13T23:15:34.045Z,64.28
2022-12-13T23:18:03.539Z,62.25
2022-12-13T23:20:36.219Z,60.92
2022-12-13T23:23:05.829Z,63.75
2022-12-13T23:25:35.682Z,63.75
2022-12-13T23:28:05.343Z,61.85
2022-12-13T23:30:34.762Z,72.57
2022-12-13T23:33:04.328Z,59.13
2022-12-13T23:35:36.379Z,56.20
2022-12-13T23:38:05.859Z,52.13
2022-12-13T23:40:35.371Z,60.63
2022-12-13T23:43:04.876Z,60.90
2022-12-13T23:45:34.411Z,63.88
2022-12-13T23:48:03.884Z,56.42
2022-12-13T23:50:35.885Z,60.28
2022-12-13T23:53:05.393Z,61.83
2022-12-13T23:55:38.959Z,55.80
2022-12-13T23:58:09.049Z,55.95
